createdAt,value
2023-03-22T00:01:33.388Z,3.47
2023-03-22T00:04:06.030Z,4.13
2023-03-22T00:06:35.992Z,5.00
2023-03-22T00:09:06.496Z,4.32
2023-03-22T00:11:36.704Z,5.05
2023-03-22T00:14:07.046Z,4.68
2023-03-22T00:16:36.955Z,4.60
2023-03-22T00:19:09.413Z,5.35
2023-03-22T00:21:39.601Z,4.72
2023-03-22T00:24:10.470Z,4.85
2023-03-22T00:26:40.490Z,3.55
2023-03-22T00:29:10.363Z,4.38
2023-03-22T00:31:41.233Z,4.80
2023-03-22T00:34:13.723Z,4.22
2023-03-22T00:36:43.666Z,4.28
2023-03-22T00:39:13.567Z,4.65
2023-03-22T00:41:44.472Z,4.57
2023-03-22T00:44:14.891Z,4.60
2023-03-22T00:46:45.136Z,4.35
2023-03-22T00:49:18.939Z,5.10
2023-03-22T00:51:49.551Z,5.03
2023-03-22T00:54:19.586Z,4.25
2023-03-22T00:56:49.978Z,4.43
2023-03-22T00:59:21.469Z,3.30
2023-03-22T01:01:51.464Z,3.40
2023-03-22T01:04:26.223Z,3.30
2023-03-22T01:07:01.388Z,3.05
2023-03-22T01:09:34.116Z,3.67
2023-03-22T01:12:04.928Z,3.20
2023-03-22T01:14:34.866Z,2.88
2023-03-22T01:17:04.845Z,2.60
2023-03-22T01:19:38.166Z,2.72
2023-03-22T01:22:09.477Z,3.60
2023-03-22T01:24:39.797Z,3.95
2023-03-22T01:27:09.702Z,4.63
2023-03-22T01:29:39.598Z,4.95
2023-03-22T01:32:09.669Z,4.57
2023-03-22T01:34:42.212Z,4.70
2023-03-22T01:37:12.570Z,4.03
2023-03-22T01:39:47.339Z,4.30
2023-03-22T01:42:22.029Z,5.07
2023-03-22T01:45:20.406Z,4.15
2023-03-22T01:47:54.409Z,4.15
2023-03-22T01:50:28.677Z,4.63
2023-03-22T01:53:05.045Z,4.70
2023-03-22T01:55:37.630Z,4.53
2023-03-22T01:58:12.499Z,4.00
2023-03-22T02:00:51.446Z,4.50
2023-03-22T02:03:59.988Z,4.03
2023-03-22T02:06:33.055Z,4.32
2023-03-22T02:09:13.520Z,3.80
2023-03-22T02:11:46.322Z,3.42
2023-03-22T02:14:46.184Z,3.65
2023-03-22T02:17:59.820Z,3.33
2023-03-22T02:21:05.736Z,4.63
2023-03-22T02:27:06.603Z,4.30
2023-03-22T02:29:45.061Z,3.95
2023-03-22T02:32:51.065Z,2.95
2023-03-22T02:35:51.692Z,4.32
2023-03-22T02:38:52.603Z,3.65
2023-03-22T02:41:35.950Z,3.85
2023-03-22T02:44:12.121Z,3.10
2023-03-22T02:46:46.940Z,3.72
2023-03-22T02:49:22.794Z,3.92
2023-03-22T02:52:01.482Z,3.92
2023-03-22T02:54:36.441Z,3.67
2023-03-22T02:57:14.494Z,3.35
2023-03-22T02:59:46.247Z,3.85
2023-03-22T03:02:19.759Z,4.15
2023-03-22T03:04:53.464Z,4.00
2023-03-22T03:07:28.658Z,4.50
2023-03-22T03:10:00.031Z,4.28
2023-03-22T03:12:32.664Z,4.80
2023-03-22T03:15:02.911Z,4.88
2023-03-22T03:17:45.522Z,4.57
2023-03-22T03:20:32.040Z,4.20
2023-03-22T03:23:16.136Z,4.25
2023-03-22T03:25:54.359Z,3.92
2023-03-22T03:28:38.198Z,3.83
2023-03-22T03:31:17.991Z,4.72
2023-03-22T03:33:57.856Z,5.18
2023-03-22T03:36:29.999Z,4.97
2023-03-22T03:39:01.233Z,6.38
2023-03-22T03:41:33.982Z,6.47
2023-03-22T03:44:07.457Z,5.47
2023-03-22T03:46:37.583Z,6.90
2023-03-22T03:49:08.848Z,6.40
2023-03-22T03:51:49.944Z,6.65
2023-03-22T03:54:20.699Z,6.55
2023-03-22T03:56:51.179Z,6.30
2023-03-22T03:59:23.985Z,5.70
2023-03-22T04:01:55.836Z,7.28
2023-03-22T04:04:32.040Z,6.70
2023-03-22T04:07:08.092Z,6.15
2023-03-22T04:09:41.536Z,6.00
2023-03-22T04:12:25.612Z,6.32
2023-03-22T04:15:19.298Z,5.30
2023-03-22T04:17:54.429Z,6.45
2023-03-22T04:20:28.184Z,6.32
2023-03-22T04:22:58.081Z,6.82
2023-03-22T04:25:30.369Z,6.50
2023-03-22T04:28:09.669Z,6.82
2023-03-22T04:30:45.691Z,6.32
2023-03-22T04:33:39.332Z,6.55
2023-03-22T04:36:19.772Z,5.68
2023-03-22T04:39:07.005Z,6.78
2023-03-22T04:41:37.518Z,6.63
2023-03-22T04:44:08.415Z,6.43
2023-03-22T04:46:44.594Z,6.85
2023-03-22T04:49:14.783Z,5.13
2023-03-22T04:51:46.173Z,6.85
2023-03-22T04:54:31.533Z,6.47
2023-03-22T04:57:01.792Z,6.03
2023-03-22T04:59:35.676Z,8.95
2023-03-22T05:02:08.316Z,8.35
2023-03-22T05:04:45.054Z,7.72
2023-03-22T05:07:31.484Z,7.28
2023-03-22T05:10:04.140Z,7.63
2023-03-22T05:12:34.259Z,7.63
2023-03-22T05:15:26.768Z,7.22
2023-03-22T05:17:59.509Z,7.85
2023-03-22T05:20:30.018Z,6.30
2023-03-22T05:23:12.434Z,6.00
2023-03-22T05:25:46.872Z,6.55
2023-03-22T05:28:21.451Z,6.38
2023-03-22T05:31:17.640Z,6.30
2023-03-22T05:33:57.606Z,6.45
2023-03-22T05:36:31.443Z,6.22
2023-03-22T05:39:12.169Z,6.80
2023-03-22T05:41:42.140Z,6.72
2023-03-22T05:44:12.027Z,6.85
2023-03-22T05:46:48.506Z,6.47
2023-03-22T05:49:41.551Z,6.55
2023-03-22T05:52:12.385Z,6.40
2023-03-22T05:55:09.508Z,6.53
2023-03-22T05:57:39.412Z,7.18
2023-03-22T06:00:13.637Z,5.97
2023-03-22T06:02:52.422Z,6.90
2023-03-22T06:05:26.068Z,6.18
2023-03-22T06:07:56.643Z,7.28
2023-03-22T06:10:26.964Z,6.90
2023-03-22T06:12:57.102Z,7.13
2023-03-22T06:15:31.653Z,7.75
2023-03-22T06:18:01.584Z,8.30
2023-03-22T06:20:39.321Z,7.28
2023-03-22T06:23:18.044Z,8.57
2023-03-22T06:25:49.914Z,8.73
2023-03-22T06:28:20.701Z,8.63
2023-03-22T06:30:56.688Z,8.82
2023-03-22T06:33:45.548Z,8.18
2023-03-22T06:36:32.677Z,7.40
2023-03-22T06:39:15.958Z,7.57
2023-03-22T06:41:48.159Z,7.50
2023-03-22T06:44:18.679Z,7.25
2023-03-22T06:46:54.642Z,6.35
2023-03-22T06:49:43.322Z,6.45
2023-03-22T06:52:21.596Z,7.03
2023-03-22T06:54:51.644Z,6.30
2023-03-22T06:57:22.650Z,6.85
2023-03-22T06:59:52.542Z,7.20
2023-03-22T07:02:23.704Z,7.03
2023-03-22T07:05:21.155Z,7.00
2023-03-22T07:07:53.795Z,6.50
2023-03-22T07:10:23.829Z,6.53
2023-03-22T07:12:53.806Z,5.97
2023-03-22T07:15:24.781Z,6.00
2023-03-22T07:18:08.549Z,5.03
2023-03-22T07:20:41.693Z,6.45
2023-03-22T07:23:15.443Z,5.18
2023-03-22T07:25:55.966Z,5.35
2023-03-22T07:28:30.913Z,5.07
2023-03-22T07:31:06.129Z,4.88
2023-03-22T07:34:11.458Z,4.85
2023-03-22T07:36:51.512Z,4.93
2023-03-22T07:39:24.776Z,4.47
2023-03-22T07:41:54.811Z,5.38
2023-03-22T07:44:25.149Z,4.60
2023-03-22T07:47:14.980Z,4.63
2023-03-22T07:50:05.982Z,4.68
2023-03-22T07:52:37.125Z,4.65
2023-03-22T07:55:10.368Z,4.30
2023-03-22T07:57:40.768Z,5.13
2023-03-22T08:00:13.137Z,4.30
2023-03-22T08:02:46.885Z,3.95
2023-03-22T08:05:43.129Z,4.18
2023-03-22T08:08:15.991Z,4.00
2023-03-22T08:10:52.183Z,3.65
2023-03-22T08:13:22.532Z,3.20
2023-03-22T08:15:52.490Z,3.30
2023-03-22T08:18:23.335Z,3.00
2023-03-22T08:20:57.229Z,3.13
2023-03-22T08:23:41.394Z,3.00
2023-03-22T08:26:34.882Z,2.88
2023-03-22T08:29:14.351Z,2.88
2023-03-22T08:31:49.963Z,2.38
2023-03-22T08:34:21.184Z,3.30
2023-03-22T08:36:51.126Z,2.78
2023-03-22T08:39:21.452Z,2.88
2023-03-22T08:42:12.232Z,2.33
2023-03-22T08:44:42.230Z,3.05
2023-03-22T08:47:12.446Z,2.53
2023-03-22T08:49:44.697Z,2.05
2023-03-22T08:52:21.764Z,3.08
2023-03-22T08:55:24.898Z,2.78
2023-03-22T08:58:19.068Z,2.90
2023-03-22T09:00:56.873Z,2.58
2023-03-22T09:03:32.987Z,2.83
2023-03-22T09:06:02.928Z,2.45
2023-03-22T09:08:38.236Z,2.50
2023-03-22T09:11:17.812Z,1.98
2023-03-22T09:13:52.406Z,1.92
2023-03-22T09:16:23.229Z,2.35
2023-03-22T09:18:53.399Z,1.95
2023-03-22T09:21:29.907Z,1.42
2023-03-22T09:24:11.024Z,1.20
2023-03-22T09:26:46.643Z,1.30
2023-03-22T09:29:22.205Z,0.93
2023-03-22T09:31:52.301Z,1.35
2023-03-22T09:34:29.699Z,0.80
2023-03-22T09:37:02.568Z,0.70
2023-03-22T09:39:40.633Z,0.80
2023-03-22T09:42:25.976Z,1.42
2023-03-22T09:45:00.319Z,0.68
2023-03-22T09:47:44.371Z,1.15
2023-03-22T09:50:17.945Z,1.02
2023-03-22T09:52:47.892Z,0.90
2023-03-22T09:55:23.717Z,0.80
2023-03-22T09:58:04.658Z,0.95
2023-03-22T10:00:44.403Z,0.70
2023-03-22T10:03:28.638Z,0.90
2023-03-22T10:06:03.824Z,1.10
2023-03-22T10:08:42.276Z,0.80
2023-03-22T10:11:21.174Z,1.30
2023-03-22T10:14:03.345Z,0.90
2023-03-22T10:16:38.088Z,0.88
2023-03-22T10:19:17.319Z,1.40
2023-03-22T10:21:49.358Z,1.13
2023-03-22T10:24:22.812Z,0.70
2023-03-22T10:26:54.047Z,0.73
2023-03-22T10:29:29.917Z,0.65
2023-03-22T10:32:16.555Z,0.82
2023-03-22T10:34:47.396Z,0.75
2023-03-22T10:37:20.113Z,0.70
2023-03-22T10:39:53.893Z,0.88
2023-03-22T10:42:26.701Z,0.50
2023-03-22T10:45:00.160Z,0.88
2023-03-22T10:47:36.260Z,0.60
2023-03-22T10:50:10.100Z,0.40
2023-03-22T10:52:45.184Z,0.50
2023-03-22T10:55:18.091Z,0.43
2023-03-22T10:57:58.946Z,0.38
2023-03-22T11:00:29.165Z,0.45
2023-03-22T11:03:04.377Z,0.73
2023-03-22T11:05:34.346Z,0.55
2023-03-22T11:08:06.752Z,0.25
2023-03-22T11:10:36.840Z,0.70
2023-03-22T11:13:23.131Z,0.50
2023-03-22T11:15:55.726Z,0.52
2023-03-22T11:18:31.914Z,0.22
2023-03-22T11:21:03.861Z,0.20
2023-03-22T11:23:36.087Z,0.43
2023-03-22T11:26:11.356Z,0.43
2023-03-22T11:28:48.065Z,0.88
2023-03-22T11:31:19.531Z,0.40
2023-03-22T11:34:01.123Z,0.40
2023-03-22T11:36:32.100Z,0.38
2023-03-22T11:39:03.362Z,0.30
2023-03-22T11:41:37.493Z,0.47
2023-03-22T11:44:10.532Z,0.35
2023-03-22T11:46:41.590Z,0.13
2023-03-22T11:49:19.558Z,0.20
2023-03-22T11:51:49.706Z,0.30
2023-03-22T11:54:29.857Z,0.32
2023-03-22T11:57:03.887Z,0.40
2023-03-22T11:59:40.952Z,0.28
2023-03-22T12:02:21.068Z,0.20
2023-03-22T12:05:00.598Z,0.20
2023-03-22T12:07:33.875Z,0.50
2023-03-22T12:10:10.058Z,0.60
2023-03-22T12:12:43.172Z,0.47
2023-03-22T12:15:20.405Z,0.30
2023-03-22T12:17:56.400Z,0.22
2023-03-22T12:20:39.197Z,0.20
2023-03-22T12:23:16.996Z,0.30
2023-03-22T12:25:52.070Z,0.55
2023-03-22T12:28:25.639Z,0.30
2023-03-22T12:30:58.766Z,0.10
2023-03-22T12:33:32.187Z,0.40
2023-03-22T12:36:06.897Z,0.30
2023-03-22T12:38:42.901Z,0.40
2023-03-22T12:41:18.254Z,0.28
2023-03-22T12:43:54.903Z,0.40
2023-03-22T12:46:28.001Z,0.80
2023-03-22T12:49:03.775Z,0.15
2023-03-22T12:51:36.332Z,0.35
2023-03-22T12:54:07.593Z,0.10
2023-03-22T12:56:42.635Z,0.15
2023-03-22T12:59:20.661Z,0.17
2023-03-22T13:01:56.705Z,0.30
2023-03-22T13:04:33.003Z,0.20
2023-03-22T13:07:17.349Z,0.20
2023-03-22T13:09:48.800Z,0.30
2023-03-22T13:12:36.923Z,0.10
2023-03-22T13:15:41.238Z,0.17
2023-03-22T13:18:33.596Z,0.30
2023-03-22T13:21:19.214Z,0.10
2023-03-22T13:24:05.119Z,0.40
2023-03-22T13:26:39.503Z,0.20
2023-03-22T13:29:19.009Z,0.20
2023-03-22T13:31:58.328Z,0.25
2023-03-22T13:34:41.137Z,0.40
2023-03-22T13:37:30.355Z,0.25
2023-03-22T13:40:04.523Z,0.10
2023-03-22T13:42:39.666Z,0.10
2023-03-22T13:45:20.758Z,0.52
2023-03-22T13:48:07.690Z,0.00
2023-03-22T13:50:39.026Z,0.10
2023-03-22T13:53:17.252Z,0.20
2023-03-22T13:56:03.258Z,0.10
2023-03-22T13:58:41.270Z,0.10
2023-03-22T14:01:19.762Z,0.10
2023-03-22T14:03:52.475Z,0.05
2023-03-22T14:06:26.110Z,0.10
2023-03-22T14:09:02.089Z,0.13
2023-03-22T14:11:43.072Z,0.30
2023-03-22T14:14:16.266Z,0.10
2023-03-22T14:16:49.830Z,0.10
2023-03-22T14:19:23.242Z,0.10
2023-03-22T14:52:42.432Z,0.00
2023-03-22T14:55:18.409Z,0.10
2023-03-22T14:57:54.008Z,0.00
2023-03-22T15:00:25.931Z,0.10
2023-03-22T15:02:59.737Z,0.00
2023-03-22T15:05:36.152Z,0.00
2023-03-22T15:08:12.020Z,0.05
2023-03-22T15:10:43.349Z,0.10
2023-03-22T15:13:16.448Z,0.10
2023-03-22T15:15:47.603Z,0.03
2023-03-22T15:18:21.062Z,0.10
2023-03-22T15:20:53.853Z,0.10
2023-03-22T15:23:25.495Z,0.20
2023-03-22T15:25:58.945Z,0.10
2023-03-22T15:28:35.769Z,0.00
2023-03-22T15:31:07.239Z,0.03
2023-03-22T15:33:39.829Z,0.00
2023-03-22T15:36:10.528Z,0.03
2023-03-22T15:38:46.946Z,0.20
2023-03-22T15:41:27.422Z,0.20
2023-03-22T15:44:08.937Z,0.10
2023-03-22T15:46:56.127Z,0.00
2023-03-22T15:49:36.546Z,0.00
2023-03-22T15:52:12.148Z,0.00
2023-03-22T15:54:46.786Z,0.10
2023-03-22T15:57:26.121Z,0.00
2023-03-22T16:00:10.051Z,0.10
2023-03-22T16:02:40.874Z,0.20
2023-03-22T16:05:15.254Z,0.10
2023-03-22T16:07:45.204Z,0.22
2023-03-22T16:10:18.638Z,0.20
2023-03-22T16:12:48.922Z,0.10
2023-03-22T16:15:23.832Z,0.10
2023-03-22T16:17:53.808Z,0.10
2023-03-22T16:20:23.779Z,0.17
2023-03-22T16:22:54.497Z,0.10
2023-03-22T16:25:26.657Z,0.30
2023-03-22T16:27:56.777Z,0.30
2023-03-22T16:30:30.014Z,0.00
2023-03-22T16:32:59.939Z,0.35
2023-03-22T16:35:30.828Z,0.13
2023-03-22T16:38:01.254Z,0.22
2023-03-22T16:40:32.907Z,0.13
2023-03-22T16:43:03.838Z,0.20
2023-03-22T16:45:38.529Z,0.20
2023-03-22T16:48:09.184Z,0.10
2023-03-22T16:50:42.443Z,0.10
2023-03-22T16:53:16.800Z,0.22
2023-03-22T16:55:47.636Z,0.20
2023-03-22T16:58:18.335Z,0.10
2023-03-22T17:00:51.132Z,0.10
2023-03-22T17:03:25.180Z,0.65
2023-03-22T17:08:24.939Z,0.13
2023-03-22T17:10:55.077Z,0.10
2023-03-22T17:13:25.049Z,0.10
2023-03-22T17:15:57.694Z,0.40
2023-03-22T17:18:28.058Z,0.15
2023-03-22T17:20:58.112Z,0.25
2023-03-22T17:23:28.483Z,0.10
2023-03-22T17:25:58.517Z,0.40
2023-03-22T17:28:31.030Z,0.30
2023-03-22T17:31:06.188Z,0.45
2023-03-22T17:33:37.047Z,0.43
2023-03-22T17:36:09.825Z,0.40
2023-03-22T17:38:45.989Z,0.63
2023-03-22T17:41:30.075Z,0.40
2023-03-22T17:44:00.461Z,0.57
2023-03-22T17:47:05.593Z,0.75
2023-03-22T17:49:22.998Z,0.73
2023-03-22T17:51:53.108Z,1.98
2023-03-22T17:54:56.964Z,7.43
2023-03-22T17:57:43.478Z,20.88
2023-03-22T18:00:03.638Z,15.32
2023-03-22T18:02:45.677Z,13.18
2023-03-22T18:05:19.425Z,4.18
2023-03-22T18:08:16.735Z,10.30
2023-03-22T18:10:45.497Z,13.60
2023-03-22T18:13:15.486Z,18.02
2023-03-22T18:15:45.612Z,18.55
2023-03-22T18:18:18.348Z,17.63
2023-03-22T18:20:57.319Z,18.27
2023-03-22T18:23:28.054Z,14.85
2023-03-22T18:26:01.851Z,15.27
2023-03-22T18:28:33.056Z,12.55
2023-03-22T18:31:03.116Z,10.23
2023-03-22T18:33:35.741Z,8.32
2023-03-22T18:36:05.879Z,6.10
2023-03-22T18:39:24.831Z,6.55
2023-03-22T18:41:44.626Z,4.55
2023-03-22T18:44:16.461Z,3.50
2023-03-22T18:46:47.035Z,3.67
2023-03-22T18:49:19.731Z,4.65
2023-03-22T18:52:23.394Z,4.07
2023-03-22T18:54:42.753Z,3.65
2023-03-22T18:57:16.345Z,4.28
2023-03-22T18:59:48.412Z,4.03
2023-03-22T19:02:28.054Z,3.70
2023-03-22T19:05:12.510Z,4.25
2023-03-22T19:07:55.119Z,4.47
2023-03-22T19:10:32.694Z,2.92
2023-03-22T19:13:02.965Z,3.22
2023-03-22T19:18:12.074Z,3.88
2023-03-22T19:23:18.815Z,3.22
2023-03-22T19:25:49.154Z,3.50
2023-03-22T19:28:19.540Z,3.05
2023-03-22T19:30:50.525Z,3.22
2023-03-22T19:33:34.736Z,3.38
2023-03-22T19:36:14.086Z,2.92
2023-03-22T19:38:44.416Z,3.97
2023-03-22T19:41:35.128Z,3.72
2023-03-22T19:44:06.080Z,3.67
2023-03-22T19:46:36.869Z,3.45
2023-03-22T19:49:06.921Z,4.93
2023-03-22T19:51:39.571Z,4.10
2023-03-22T19:54:30.169Z,4.60
2023-03-22T19:57:00.060Z,3.30
2023-03-22T19:59:31.753Z,3.65
2023-03-22T20:02:02.198Z,3.67
2023-03-22T20:04:33.221Z,3.30
2023-03-22T20:07:06.175Z,2.00
2023-03-22T20:09:36.229Z,1.63
2023-03-22T20:12:06.608Z,3.60
2023-03-22T20:14:36.712Z,5.38
2023-03-22T20:17:08.611Z,4.15
2023-03-22T20:19:42.849Z,3.60
2023-03-22T20:22:15.550Z,2.15
2023-03-22T20:24:45.546Z,0.85
2023-03-22T20:27:15.676Z,1.20
2023-03-22T20:29:45.734Z,0.60
2023-03-22T20:32:15.818Z,0.95
2023-03-22T20:34:46.305Z,0.73
2023-03-22T20:37:22.338Z,0.55
2023-03-22T20:39:52.543Z,0.60
2023-03-22T20:42:22.701Z,0.70
2023-03-22T20:44:54.669Z,1.88
2023-03-22T20:47:24.924Z,2.50
2023-03-22T20:49:55.981Z,2.22
2023-03-22T20:52:29.343Z,2.50
2023-03-22T20:54:59.600Z,1.93
2023-03-22T20:57:29.702Z,1.50
2023-03-22T21:00:01.101Z,1.45
2023-03-22T21:02:32.166Z,1.50
2023-03-22T21:05:02.330Z,1.52
2023-03-22T21:07:35.073Z,1.42
2023-03-22T21:10:05.092Z,1.17
2023-03-22T21:12:36.142Z,1.10
2023-03-22T21:15:06.473Z,1.10
2023-03-22T21:17:36.786Z,0.70
2023-03-22T21:20:07.595Z,1.00
2023-03-22T21:22:40.442Z,1.35
2023-03-22T21:25:11.668Z,2.20
2023-03-22T21:27:41.784Z,1.80
2023-03-22T21:30:13.853Z,1.83
2023-03-22T21:32:47.271Z,1.25
2023-03-22T21:35:17.343Z,1.60
2023-03-22T21:37:50.090Z,1.70
2023-03-22T21:40:22.031Z,1.63
2023-03-22T21:42:54.247Z,1.88
2023-03-22T21:45:24.222Z,2.20
2023-03-22T21:47:58.140Z,2.15
2023-03-22T21:53:01.241Z,2.38
2023-03-22T21:55:32.658Z,2.30
2023-03-22T21:58:03.716Z,1.95
2023-03-22T22:00:33.954Z,3.60
2023-03-22T22:03:04.237Z,2.58
2023-03-22T22:05:34.763Z,1.98
2023-03-22T22:08:08.271Z,2.25
2023-03-22T22:10:38.244Z,2.10
2023-03-22T22:13:08.433Z,2.47
2023-03-22T22:15:38.778Z,1.85
2023-03-22T22:18:09.189Z,2.00
2023-03-22T22:20:39.468Z,2.03
2023-03-22T22:23:12.051Z,2.00
2023-03-22T22:25:43.370Z,2.25
2023-03-22T22:28:13.856Z,2.30
2023-03-22T22:30:44.156Z,2.13
2023-03-22T22:33:14.413Z,2.38
2023-03-22T22:35:45.005Z,2.00
2023-03-22T22:38:17.925Z,1.85
2023-03-22T22:40:48.109Z,1.52
2023-03-22T22:43:18.528Z,1.60
2023-03-22T22:45:49.529Z,1.48
2023-03-22T22:48:19.657Z,1.60
2023-03-22T22:50:49.941Z,1.30
2023-03-22T22:53:22.538Z,1.52
2023-03-22T22:55:53.187Z,1.50
2023-03-22T22:58:23.302Z,1.63
2023-03-22T23:00:54.043Z,1.80
2023-03-22T23:03:25.279Z,1.88
2023-03-22T23:05:55.489Z,1.98
2023-03-22T23:08:29.336Z,1.77
2023-03-22T23:11:00.191Z,1.75
2023-03-22T23:13:31.600Z,2.10
2023-03-22T23:16:03.515Z,1.67
2023-03-22T23:18:33.518Z,1.65
2023-03-22T23:21:03.935Z,1.80
2023-03-22T23:23:40.516Z,1.88
2023-03-22T23:26:22.915Z,1.77
2023-03-22T23:28:57.775Z,1.70
2023-03-22T23:31:30.270Z,1.52
2023-03-22T23:34:02.264Z,1.77
2023-03-22T23:36:34.620Z,1.73
2023-03-22T23:39:08.244Z,1.77
2023-03-22T23:41:38.333Z,1.90
2023-03-22T23:44:08.526Z,1.67
2023-03-22T23:46:38.749Z,1.50
2023-03-22T23:49:09.293Z,1.40
2023-03-22T23:51:40.527Z,1.63
2023-03-22T23:54:13.148Z,1.58
2023-03-22T23:56:43.474Z,1.50
2023-03-22T23:59:13.509Z,2.13
